sensor_id;sensor_type;location;lat;lon;timestamp;P1;durP1;ratioP1;P2;durP2;ratioP2
1785;SDS011;890;48.158;11.540;2023-02-13T00:01:29;24.40;;;15.77;;
1785;SDS011;890;48.158;11.540;2023-02-13T00:03:55;30.00;;;17.27;;
1785;SDS011;890;48.158;11.540;2023-02-13T00:06:21;33.30;;;16.37;;
1785;SDS011;890;48.158;11.540;2023-02-13T00:08:47;29.60;;;16.80;;
1785;SDS011;890;48.158;11.540;2023-02-13T00:11:12;34.97;;;17.50;;
1785;SDS011;890;48.158;11.540;2023-02-13T00:13:38;55.00;;;20.33;;
1785;SDS011;890;48.158;11.540;2023-02-13T00:16:04;35.63;;;18.50;;
1785;SDS011;890;48.158;11.540;2023-02-13T00:18:32;35.80;;;18.43;;
1785;SDS011;890;48.158;11.540;2023-02-13T00:21:02;29.13;;;18.07;;
1785;SDS011;890;48.158;11.540;2023-02-13T00:23:30;26.97;;;17.83;;
1785;SDS011;890;48.158;11.540;2023-02-13T00:25:57;50.20;;;20.93;;
1785;SDS011;890;48.158;11.540;2023-02-13T00:28:23;36.40;;;20.67;;
1785;SDS011;890;48.158;11.540;2023-02-13T00:30:49;43.53;;;21.40;;
1785;SDS011;890;48.158;11.540;2023-02-13T00:33:15;50.63;;;19.87;;
1785;SDS011;890;48.158;11.540;2023-02-13T00:35:40;29.13;;;18.30;;
1785;SDS011;890;48.158;11.540;2023-02-13T00:38:06;31.70;;;19.20;;
1785;SDS011;890;48.158;11.540;2023-02-13T00:40:32;45.10;;;21.27;;
1785;SDS011;890;48.158;11.540;2023-02-13T00:42:57;35.30;;;19.67;;
1785;SDS011;890;48.158;11.540;2023-02-13T00:45:23;52.90;;;21.80;;
1785;SDS011;890;48.158;11.540;2023-02-13T00:47:49;33.20;;;19.73;;
1785;SDS011;890;48.158;11.540;2023-02-13T00:50:14;33.33;;;19.30;;
1785;SDS011;890;48.158;11.540;2023-02-13T00:52:40;34.03;;;20.00;;
1785;SDS011;890;48.158;11.540;2023-02-13T00:55:06;34.93;;;20.40;;
1785;SDS011;890;48.158;11.540;2023-02-13T00:57:31;34.10;;;20.70;;
1785;SDS011;890;48.158;11.540;2023-02-13T00:59:57;37.20;;;20.37;;
1785;SDS011;890;48.158;11.540;2023-02-13T01:02:23;55.93;;;24.83;;
1785;SDS011;890;48.158;11.540;2023-02-13T01:04:49;36.27;;;19.37;;
1785;SDS011;890;48.158;11.540;2023-02-13T01:07:15;34.67;;;20.20;;
1785;SDS011;890;48.158;11.540;2023-02-13T01:09:40;38.50;;;18.63;;
1785;SDS011;890;48.158;11.540;2023-02-13T01:12:06;32.93;;;20.07;;
1785;SDS011;890;48.158;11.540;2023-02-13T01:14:32;36.50;;;21.27;;
1785;SDS011;890;48.158;11.540;2023-02-13T01:16:58;44.83;;;23.50;;
1785;SDS011;890;48.158;11.540;2023-02-13T01:19:23;37.27;;;20.97;;
1785;SDS011;890;48.158;11.540;2023-02-13T01:21:49;38.77;;;19.77;;
1785;SDS011;890;48.158;11.540;2023-02-13T01:24:15;35.50;;;20.43;;
1785;SDS011;890;48.158;11.540;2023-02-13T01:26:40;33.90;;;21.00;;
1785;SDS011;890;48.158;11.540;2023-02-13T01:29:06;32.27;;;21.00;;
1785;SDS011;890;48.158;11.540;2023-02-13T01:31:32;32.57;;;20.60;;
1785;SDS011;890;48.158;11.540;2023-02-13T01:33:58;46.37;;;21.90;;
1785;SDS011;890;48.158;11.540;2023-02-13T01:36:24;41.07;;;21.10;;
1785;SDS011;890;48.158;11.540;2023-02-13T01:38:53;36.50;;;21.43;;
1785;SDS011;890;48.158;11.540;2023-02-13T01:41:20;33.50;;;20.10;;
1785;SDS011;890;48.158;11.540;2023-02-13T01:43:48;41.10;;;23.00;;
1785;SDS011;890;48.158;11.540;2023-02-13T01:46:30;52.20;;;23.40;;
1785;SDS011;890;48.158;11.540;2023-02-13T01:49:02;38.37;;;20.93;;
1785;SDS011;890;48.158;11.540;2023-02-13T01:51:35;34.70;;;20.50;;
1785;SDS011;890;48.158;11.540;2023-02-13T01:54:07;35.77;;;20.70;;
1785;SDS011;890;48.158;11.540;2023-02-13T01:56:39;32.43;;;19.60;;
1785;SDS011;890;48.158;11.540;2023-02-13T01:59:20;36.30;;;20.57;;
1785;SDS011;890;48.158;11.540;2023-02-13T02:01:52;40.77;;;22.10;;
1785;SDS011;890;48.158;11.540;2023-02-13T02:04:20;29.93;;;19.30;;
1785;SDS011;890;48.158;11.540;2023-02-13T02:06:52;29.03;;;19.87;;
1785;SDS011;890;48.158;11.540;2023-02-13T02:09:22;36.90;;;19.30;;
1785;SDS011;890;48.158;11.540;2023-02-13T02:14:29;33.90;;;19.77;;
1785;SDS011;890;48.158;11.540;2023-02-13T02:16:56;35.37;;;19.57;;
1785;SDS011;890;48.158;11.540;2023-02-13T02:30:35;26.37;;;18.80;;
1785;SDS011;890;48.158;11.540;2023-02-13T02:41:24;29.93;;;18.90;;
1785;SDS011;890;48.158;11.540;2023-02-13T02:46:48;27.57;;;18.47;;
1785;SDS011;890;48.158;11.540;2023-02-13T02:49:40;29.97;;;18.70;;
1785;SDS011;890;48.158;11.540;2023-02-13T02:55:28;29.80;;;18.87;;
1785;SDS011;890;48.158;11.540;2023-02-13T02:58:07;29.50;;;18.60;;
1785;SDS011;890;48.158;11.540;2023-02-13T03:00:53;37.20;;;20.27;;
1785;SDS011;890;48.158;11.540;2023-02-13T03:03:39;36.37;;;20.00;;
1785;SDS011;890;48.158;11.540;2023-02-13T03:06:35;36.77;;;20.87;;
1785;SDS011;890;48.158;11.540;2023-02-13T03:09:11;28.80;;;18.93;;
1785;SDS011;890;48.158;11.540;2023-02-13T03:12:01;36.43;;;19.60;;
1785;SDS011;890;48.158;11.540;2023-02-13T03:14:46;32.57;;;19.37;;
1785;SDS011;890;48.158;11.540;2023-02-13T03:17:13;32.60;;;20.17;;
1785;SDS011;890;48.158;11.540;2023-02-13T03:25:56;36.73;;;20.03;;
1785;SDS011;890;48.158;11.540;2023-02-13T03:28:35;34.77;;;20.70;;
1785;SDS011;890;48.158;11.540;2023-02-13T03:31:59;37.30;;;20.93;;
1785;SDS011;890;48.158;11.540;2023-02-13T03:34:29;36.33;;;20.97;;
1785;SDS011;890;48.158;11.540;2023-02-13T03:37:24;34.73;;;20.90;;
1785;SDS011;890;48.158;11.540;2023-02-13T03:42:57;38.43;;;21.40;;
1785;SDS011;890;48.158;11.540;2023-02-13T03:45:31;28.93;;;18.67;;
1785;SDS011;890;48.158;11.540;2023-02-13T03:48:24;27.00;;;19.20;;
1785;SDS011;890;48.158;11.540;2023-02-13T03:51:13;29.40;;;18.00;;
1785;SDS011;890;48.158;11.540;2023-02-13T03:53:43;32.27;;;19.60;;
1785;SDS011;890;48.158;11.540;2023-02-13T03:56:13;26.87;;;18.43;;
1785;SDS011;890;48.158;11.540;2023-02-13T03:58:59;30.53;;;19.63;;
1785;SDS011;890;48.158;11.540;2023-02-13T04:02:06;35.07;;;19.33;;
1785;SDS011;890;48.158;11.540;2023-02-13T04:07:16;25.80;;;18.00;;
1785;SDS011;890;48.158;11.540;2023-02-13T04:09:55;23.90;;;17.87;;
1785;SDS011;890;48.158;11.540;2023-02-13T04:15:15;25.80;;;16.90;;
1785;SDS011;890;48.158;11.540;2023-02-13T04:17:50;27.13;;;18.10;;
1785;SDS011;890;48.158;11.540;2023-02-13T04:20:30;20.70;;;15.10;;
1785;SDS011;890;48.158;11.540;2023-02-13T04:22:56;26.40;;;17.23;;
1785;SDS011;890;48.158;11.540;2023-02-13T04:25:29;24.33;;;16.70;;
1785;SDS011;890;48.158;11.540;2023-02-13T04:27:55;25.73;;;17.50;;
1785;SDS011;890;48.158;11.540;2023-02-13T04:30:21;24.20;;;18.10;;
1785;SDS011;890;48.158;11.540;2023-02-13T04:32:46;27.70;;;19.03;;
1785;SDS011;890;48.158;11.540;2023-02-13T04:35:12;29.00;;;18.27;;
1785;SDS011;890;48.158;11.540;2023-02-13T04:37:38;24.37;;;16.67;;
1785;SDS011;890;48.158;11.540;2023-02-13T04:40:04;23.97;;;15.97;;
1785;SDS011;890;48.158;11.540;2023-02-13T04:42:30;23.03;;;15.73;;
1785;SDS011;890;48.158;11.540;2023-02-13T04:44:56;23.70;;;16.30;;
1785;SDS011;890;48.158;11.540;2023-02-13T04:47:21;20.80;;;15.30;;
1785;SDS011;890;48.158;11.540;2023-02-13T04:49:47;20.03;;;14.90;;
1785;SDS011;890;48.158;11.540;2023-02-13T04:52:12;18.43;;;15.40;;
1785;SDS011;890;48.158;11.540;2023-02-13T04:54:39;16.30;;;13.47;;
1785;SDS011;890;48.158;11.540;2023-02-13T04:57:05;17.90;;;13.80;;
1785;SDS011;890;48.158;11.540;2023-02-13T04:59:30;17.80;;;13.90;;
1785;SDS011;890;48.158;11.540;2023-02-13T05:01:56;20.50;;;14.67;;
1785;SDS011;890;48.158;11.540;2023-02-13T05:04:23;17.97;;;14.37;;
1785;SDS011;890;48.158;11.540;2023-02-13T05:06:49;19.07;;;14.53;;
1785;SDS011;890;48.158;11.540;2023-02-13T05:09:15;19.23;;;15.37;;
1785;SDS011;890;48.158;11.540;2023-02-13T05:11:41;18.67;;;14.53;;
1785;SDS011;890;48.158;11.540;2023-02-13T05:14:08;25.20;;;14.43;;
1785;SDS011;890;48.158;11.540;2023-02-13T05:16:34;20.63;;;15.40;;
1785;SDS011;890;48.158;11.540;2023-02-13T05:19:00;20.37;;;15.83;;
1785;SDS011;890;48.158;11.540;2023-02-13T05:21:25;22.70;;;17.03;;
1785;SDS011;890;48.158;11.540;2023-02-13T05:24:09;22.67;;;16.50;;
1785;SDS011;890;48.158;11.540;2023-02-13T05:26:35;23.77;;;16.23;;
1785;SDS011;890;48.158;11.540;2023-02-13T05:29:01;23.40;;;17.10;;
1785;SDS011;890;48.158;11.540;2023-02-13T05:31:45;22.83;;;16.80;;
1785;SDS011;890;48.158;11.540;2023-02-13T05:34:15;22.90;;;17.53;;
1785;SDS011;890;48.158;11.540;2023-02-13T05:36:55;25.97;;;18.57;;
1785;SDS011;890;48.158;11.540;2023-02-13T05:39:21;27.83;;;18.30;;
1785;SDS011;890;48.158;11.540;2023-02-13T05:41:47;23.17;;;17.00;;
1785;SDS011;890;48.158;11.540;2023-02-13T05:44:13;28.50;;;19.70;;
1785;SDS011;890;48.158;11.540;2023-02-13T05:46:39;26.40;;;19.50;;
1785;SDS011;890;48.158;11.540;2023-02-13T05:49:06;28.77;;;19.87;;
1785;SDS011;890;48.158;11.540;2023-02-13T05:51:33;24.57;;;18.90;;
1785;SDS011;890;48.158;11.540;2023-02-13T05:54:00;28.67;;;20.40;;
1785;SDS011;890;48.158;11.540;2023-02-13T05:56:25;26.60;;;19.30;;
1785;SDS011;890;48.158;11.540;2023-02-13T05:58:52;25.53;;;18.60;;
1785;SDS011;890;48.158;11.540;2023-02-13T06:01:19;24.87;;;18.80;;
1785;SDS011;890;48.158;11.540;2023-02-13T06:03:46;27.50;;;20.77;;
1785;SDS011;890;48.158;11.540;2023-02-13T06:06:12;29.43;;;21.17;;
1785;SDS011;890;48.158;11.540;2023-02-13T06:08:37;25.70;;;18.50;;
1785;SDS011;890;48.158;11.540;2023-02-13T06:11:03;24.47;;;18.70;;
1785;SDS011;890;48.158;11.540;2023-02-13T06:13:29;25.33;;;17.80;;
1785;SDS011;890;48.158;11.540;2023-02-13T06:15:55;23.03;;;17.80;;
1785;SDS011;890;48.158;11.540;2023-02-13T06:18:20;26.10;;;19.33;;
1785;SDS011;890;48.158;11.540;2023-02-13T06:20:46;25.20;;;19.10;;
1785;SDS011;890;48.158;11.540;2023-02-13T06:23:12;21.17;;;16.90;;
1785;SDS011;890;48.158;11.540;2023-02-13T06:25:38;27.07;;;19.70;;
1785;SDS011;890;48.158;11.540;2023-02-13T06:28:03;24.93;;;18.27;;
1785;SDS011;890;48.158;11.540;2023-02-13T06:30:29;25.20;;;17.97;;
1785;SDS011;890;48.158;11.540;2023-02-13T06:32:55;23.90;;;18.23;;
1785;SDS011;890;48.158;11.540;2023-02-13T06:35:21;26.67;;;20.70;;
1785;SDS011;890;48.158;11.540;2023-02-13T06:37:47;26.17;;;20.50;;
1785;SDS011;890;48.158;11.540;2023-02-13T06:40:13;27.90;;;19.97;;
1785;SDS011;890;48.158;11.540;2023-02-13T06:42:43;28.30;;;20.67;;
1785;SDS011;890;48.158;11.540;2023-02-13T06:45:09;26.10;;;20.07;;
1785;SDS011;890;48.158;11.540;2023-02-13T06:47:39;27.07;;;20.97;;
1785;SDS011;890;48.158;11.540;2023-02-13T06:50:09;25.10;;;20.60;;
1785;SDS011;890;48.158;11.540;2023-02-13T06:52:35;29.10;;;20.80;;
1785;SDS011;890;48.158;11.540;2023-02-13T06:55:01;28.30;;;20.40;;
1785;SDS011;890;48.158;11.540;2023-02-13T06:57:28;30.50;;;20.93;;
1785;SDS011;890;48.158;11.540;2023-02-13T06:59:57;29.43;;;23.13;;
1785;SDS011;890;48.158;11.540;2023-02-13T07:02:23;27.73;;;20.60;;
1785;SDS011;890;48.158;11.540;2023-02-13T07:04:49;27.57;;;20.50;;
1785;SDS011;890;48.158;11.540;2023-02-13T07:07:14;26.27;;;18.60;;
1785;SDS011;890;48.158;11.540;2023-02-13T07:09:40;26.07;;;20.07;;
1785;SDS011;890;48.158;11.540;2023-02-13T07:12:06;25.33;;;18.77;;
1785;SDS011;890;48.158;11.540;2023-02-13T07:14:31;29.70;;;20.47;;
1785;SDS011;890;48.158;11.540;2023-02-13T07:16:57;26.77;;;18.83;;
1785;SDS011;890;48.158;11.540;2023-02-13T07:19:23;27.17;;;20.10;;
1785;SDS011;890;48.158;11.540;2023-02-13T07:21:48;31.73;;;21.67;;
1785;SDS011;890;48.158;11.540;2023-02-13T07:24:14;25.70;;;19.63;;
1785;SDS011;890;48.158;11.540;2023-02-13T07:26:40;32.13;;;20.97;;
1785;SDS011;890;48.158;11.540;2023-02-13T07:29:06;26.13;;;20.87;;
1785;SDS011;890;48.158;11.540;2023-02-13T07:31:32;28.27;;;20.53;;
1785;SDS011;890;48.158;11.540;2023-02-13T07:33:59;30.70;;;20.93;;
1785;SDS011;890;48.158;11.540;2023-02-13T07:36:25;27.17;;;19.60;;
1785;SDS011;890;48.158;11.540;2023-02-13T07:38:51;29.40;;;20.70;;
1785;SDS011;890;48.158;11.540;2023-02-13T07:41:17;28.50;;;21.07;;
1785;SDS011;890;48.158;11.540;2023-02-13T07:43:43;29.47;;;20.33;;
1785;SDS011;890;48.158;11.540;2023-02-13T07:46:11;28.17;;;22.40;;
1785;SDS011;890;48.158;11.540;2023-02-13T07:48:37;24.33;;;18.60;;
1785;SDS011;890;48.158;11.540;2023-02-13T07:51:03;28.60;;;20.40;;
1785;SDS011;890;48.158;11.540;2023-02-13T07:53:29;18.80;;;13.00;;
1785;SDS011;890;48.158;11.540;2023-02-13T07:55:56;28.70;;;20.90;;
1785;SDS011;890;48.158;11.540;2023-02-13T07:58:21;28.10;;;21.50;;
1785;SDS011;890;48.158;11.540;2023-02-13T08:00:47;28.93;;;21.57;;
1785;SDS011;890;48.158;11.540;2023-02-13T08:03:13;29.13;;;21.40;;
1785;SDS011;890;48.158;11.540;2023-02-13T08:05:39;28.00;;;21.30;;
1785;SDS011;890;48.158;11.540;2023-02-13T08:08:05;29.60;;;22.20;;
1785;SDS011;890;48.158;11.540;2023-02-13T08:10:31;31.87;;;20.90;;
1785;SDS011;890;48.158;11.540;2023-02-13T08:13:18;25.13;;;19.07;;
1785;SDS011;890;48.158;11.540;2023-02-13T08:15:43;23.20;;;18.50;;
1785;SDS011;890;48.158;11.540;2023-02-13T08:18:09;25.63;;;19.37;;
1785;SDS011;890;48.158;11.540;2023-02-13T08:20:35;28.07;;;20.90;;
1785;SDS011;890;48.158;11.540;2023-02-13T08:23:04;27.43;;;18.97;;
1785;SDS011;890;48.158;11.540;2023-02-13T08:25:30;28.33;;;20.07;;
1785;SDS011;890;48.158;11.540;2023-02-13T08:28:00;30.50;;;21.77;;
1785;SDS011;890;48.158;11.540;2023-02-13T08:30:29;34.23;;;21.93;;
1785;SDS011;890;48.158;11.540;2023-02-13T08:33:04;31.90;;;21.70;;
1785;SDS011;890;48.158;11.540;2023-02-13T08:35:30;32.40;;;21.63;;
1785;SDS011;890;48.158;11.540;2023-02-13T08:37:56;26.57;;;19.30;;
1785;SDS011;890;48.158;11.540;2023-02-13T08:40:25;26.77;;;20.03;;
1785;SDS011;890;48.158;11.540;2023-02-13T08:42:50;29.90;;;21.10;;
1785;SDS011;890;48.158;11.540;2023-02-13T08:45:16;27.93;;;20.30;;
1785;SDS011;890;48.158;11.540;2023-02-13T08:47:41;27.07;;;19.93;;
1785;SDS011;890;48.158;11.540;2023-02-13T08:50:07;28.17;;;20.47;;
1785;SDS011;890;48.158;11.540;2023-02-13T08:52:33;25.53;;;19.57;;
1785;SDS011;890;48.158;11.540;2023-02-13T08:54:59;28.77;;;20.67;;
1785;SDS011;890;48.158;11.540;2023-02-13T08:57:27;29.97;;;20.57;;
1785;SDS011;890;48.158;11.540;2023-02-13T08:59:52;26.20;;;19.60;;
1785;SDS011;890;48.158;11.540;2023-02-13T09:02:18;40.97;;;26.70;;
1785;SDS011;890;48.158;11.540;2023-02-13T09:04:44;28.07;;;19.43;;
1785;SDS011;890;48.158;11.540;2023-02-13T09:07:09;27.03;;;20.00;;
1785;SDS011;890;48.158;11.540;2023-02-13T09:09:35;29.10;;;20.77;;
1785;SDS011;890;48.158;11.540;2023-02-13T09:12:01;25.90;;;19.20;;
1785;SDS011;890;48.158;11.540;2023-02-13T09:14:26;25.60;;;18.80;;
1785;SDS011;890;48.158;11.540;2023-02-13T09:16:52;28.73;;;21.93;;
1785;SDS011;890;48.158;11.540;2023-02-13T09:19:17;26.50;;;19.50;;
1785;SDS011;890;48.158;11.540;2023-02-13T09:21:43;27.50;;;19.90;;
1785;SDS011;890;48.158;11.540;2023-02-13T09:24:09;25.20;;;17.80;;
1785;SDS011;890;48.158;11.540;2023-02-13T09:26:35;23.80;;;18.67;;
1785;SDS011;890;48.158;11.540;2023-02-13T09:29:01;26.37;;;17.90;;
1785;SDS011;890;48.158;11.540;2023-02-13T09:31:26;26.77;;;20.93;;
1785;SDS011;890;48.158;11.540;2023-02-13T09:33:52;26.87;;;20.17;;
1785;SDS011;890;48.158;11.540;2023-02-13T09:36:20;26.90;;;20.33;;
1785;SDS011;890;48.158;11.540;2023-02-13T09:38:50;26.07;;;19.60;;
1785;SDS011;890;48.158;11.540;2023-02-13T09:41:19;27.10;;;20.67;;
1785;SDS011;890;48.158;11.540;2023-02-13T09:43:53;27.07;;;19.77;;
1785;SDS011;890;48.158;11.540;2023-02-13T09:46:27;36.10;;;22.40;;
1785;SDS011;890;48.158;11.540;2023-02-13T09:48:56;30.43;;;21.20;;
1785;SDS011;890;48.158;11.540;2023-02-13T09:51:25;31.67;;;21.47;;
1785;SDS011;890;48.158;11.540;2023-02-13T09:53:57;27.83;;;21.43;;
1785;SDS011;890;48.158;11.540;2023-02-13T09:56:36;29.77;;;21.33;;
1785;SDS011;890;48.158;11.540;2023-02-13T10:02:14;27.77;;;20.07;;
1785;SDS011;890;48.158;11.540;2023-02-13T10:04:47;29.10;;;21.30;;
1785;SDS011;890;48.158;11.540;2023-02-13T10:13:27;29.00;;;21.20;;
1785;SDS011;890;48.158;11.540;2023-02-13T10:16:18;25.93;;;20.70;;
1785;SDS011;890;48.158;11.540;2023-02-13T10:18:49;32.77;;;21.30;;
1785;SDS011;890;48.158;11.540;2023-02-13T10:21:19;25.57;;;19.10;;
1785;SDS011;890;48.158;11.540;2023-02-13T10:26:25;31.43;;;20.27;;
1785;SDS011;890;48.158;11.540;2023-02-13T10:29:08;27.27;;;20.07;;
1785;SDS011;890;48.158;11.540;2023-02-13T10:32:21;28.13;;;20.97;;
1785;SDS011;890;48.158;11.540;2023-02-13T10:34:53;29.47;;;22.23;;
1785;SDS011;890;48.158;11.540;2023-02-13T10:37:22;28.77;;;20.73;;
1785;SDS011;890;48.158;11.540;2023-02-13T10:39:49;32.57;;;21.70;;
1785;SDS011;890;48.158;11.540;2023-02-13T10:58:18;28.63;;;20.00;;
1785;SDS011;890;48.158;11.540;2023-02-13T11:00:55;27.20;;;19.50;;
1785;SDS011;890;48.158;11.540;2023-02-13T11:03:39;25.40;;;20.13;;
1785;SDS011;890;48.158;11.540;2023-02-13T11:06:05;26.57;;;19.40;;
1785;SDS011;890;48.158;11.540;2023-02-13T11:08:34;24.53;;;17.93;;
1785;SDS011;890;48.158;11.540;2023-02-13T11:11:04;30.80;;;21.40;;
1785;SDS011;890;48.158;11.540;2023-02-13T11:22:00;25.77;;;19.20;;
1785;SDS011;890;48.158;11.540;2023-02-13T11:24:35;23.90;;;18.47;;
1785;SDS011;890;48.158;11.540;2023-02-13T11:27:07;27.50;;;20.00;;
1785;SDS011;890;48.158;11.540;2023-02-13T11:29:50;27.43;;;20.33;;
1785;SDS011;890;48.158;11.540;2023-02-13T11:32:35;23.40;;;18.20;;
1785;SDS011;890;48.158;11.540;2023-02-13T11:40:42;25.23;;;19.13;;
1785;SDS011;890;48.158;11.540;2023-02-13T11:43:17;25.07;;;18.93;;
1785;SDS011;890;48.158;11.540;2023-02-13T11:46:05;23.93;;;18.53;;
1785;SDS011;890;48.158;11.540;2023-02-13T11:48:35;26.43;;;18.00;;
1785;SDS011;890;48.158;11.540;2023-02-13T11:51:01;26.20;;;18.87;;
1785;SDS011;890;48.158;11.540;2023-02-13T11:53:34;25.37;;;18.23;;
1785;SDS011;890;48.158;11.540;2023-02-13T11:58:34;27.80;;;19.53;;
1785;SDS011;890;48.158;11.540;2023-02-13T12:01:07;28.10;;;19.20;;
1785;SDS011;890;48.158;11.540;2023-02-13T12:04:05;26.60;;;19.83;;
1785;SDS011;890;48.158;11.540;2023-02-13T12:06:38;28.30;;;19.93;;
1785;SDS011;890;48.158;11.540;2023-02-13T12:09:11;27.33;;;19.33;;
1785;SDS011;890;48.158;11.540;2023-02-13T12:11:46;28.20;;;19.63;;
1785;SDS011;890;48.158;11.540;2023-02-13T12:14:46;25.43;;;18.70;;
1785;SDS011;890;48.158;11.540;2023-02-13T12:17:18;26.10;;;18.27;;
1785;SDS011;890;48.158;11.540;2023-02-13T12:19:47;26.57;;;19.00;;
1785;SDS011;890;48.158;11.540;2023-02-13T12:27:33;25.47;;;18.27;;
1785;SDS011;890;48.158;11.540;2023-02-13T12:40:53;25.67;;;19.13;;
1785;SDS011;890;48.158;11.540;2023-02-13T12:43:37;26.20;;;20.13;;
1785;SDS011;890;48.158;11.540;2023-02-13T12:46:30;25.50;;;18.27;;
1785;SDS011;890;48.158;11.540;2023-02-13T12:57:40;28.60;;;19.90;;
1785;SDS011;890;48.158;11.540;2023-02-13T13:14:45;30.50;;;18.70;;
1785;SDS011;890;48.158;11.540;2023-02-13T13:23:03;29.30;;;18.00;;
1785;SDS011;890;48.158;11.540;2023-02-13T13:28:31;24.83;;;17.97;;
1785;SDS011;890;48.158;11.540;2023-02-13T13:31:10;25.70;;;17.63;;
1785;SDS011;890;48.158;11.540;2023-02-13T13:33:41;25.93;;;17.37;;
1785;SDS011;890;48.158;11.540;2023-02-13T13:36:19;25.33;;;17.10;;
1785;SDS011;890;48.158;11.540;2023-02-13T13:39:00;23.30;;;17.73;;
1785;SDS011;890;48.158;11.540;2023-02-13T13:41:30;22.67;;;16.40;;
1785;SDS011;890;48.158;11.540;2023-02-13T13:44:05;24.37;;;16.63;;
1785;SDS011;890;48.158;11.540;2023-02-13T13:54:45;24.57;;;18.43;;
1785;SDS011;890;48.158;11.540;2023-02-13T13:57:16;22.47;;;16.83;;
1785;SDS011;890;48.158;11.540;2023-02-13T14:05:07;26.50;;;17.10;;
1785;SDS011;890;48.158;11.540;2023-02-13T14:07:47;22.23;;;17.40;;
1785;SDS011;890;48.158;11.540;2023-02-13T14:26:40;21.60;;;17.00;;
1785;SDS011;890;48.158;11.540;2023-02-13T14:31:36;22.43;;;17.00;;
1785;SDS011;890;48.158;11.540;2023-02-13T14:34:08;20.83;;;16.53;;
1785;SDS011;890;48.158;11.540;2023-02-13T14:36:45;20.97;;;17.50;;
1785;SDS011;890;48.158;11.540;2023-02-13T14:42:02;22.57;;;17.67;;
1785;SDS011;890;48.158;11.540;2023-02-13T14:44:46;21.37;;;16.33;;
1785;SDS011;890;48.158;11.540;2023-02-13T14:47:26;19.57;;;15.80;;
1785;SDS011;890;48.158;11.540;2023-02-13T14:49:54;21.60;;;18.27;;
1785;SDS011;890;48.158;11.540;2023-02-13T14:52:24;23.40;;;16.93;;
1785;SDS011;890;48.158;11.540;2023-02-13T14:54:54;22.27;;;17.80;;
1785;SDS011;890;48.158;11.540;2023-02-13T14:57:27;21.37;;;17.33;;
1785;SDS011;890;48.158;11.540;2023-02-13T15:00:00;21.67;;;18.43;;
1785;SDS011;890;48.158;11.540;2023-02-13T15:02:34;21.70;;;16.80;;
1785;SDS011;890;48.158;11.540;2023-02-13T15:05:14;23.57;;;18.07;;
1785;SDS011;890;48.158;11.540;2023-02-13T15:07:45;17.83;;;15.07;;
1785;SDS011;890;48.158;11.540;2023-02-13T15:13:04;23.10;;;17.83;;
1785;SDS011;890;48.158;11.540;2023-02-13T15:15:31;21.47;;;17.40;;
1785;SDS011;890;48.158;11.540;2023-02-13T15:18:00;21.00;;;17.13;;
1785;SDS011;890;48.158;11.540;2023-02-13T15:20:35;23.17;;;18.10;;
1785;SDS011;890;48.158;11.540;2023-02-13T15:23:03;19.70;;;15.70;;
1785;SDS011;890;48.158;11.540;2023-02-13T15:28:01;20.80;;;16.83;;
1785;SDS011;890;48.158;11.540;2023-02-13T15:30:43;20.43;;;16.90;;
1785;SDS011;890;48.158;11.540;2023-02-13T15:33:22;22.67;;;17.37;;
1785;SDS011;890;48.158;11.540;2023-02-13T15:35:57;22.60;;;18.07;;
1785;SDS011;890;48.158;11.540;2023-02-13T15:38:28;20.57;;;16.37;;
1785;SDS011;890;48.158;11.540;2023-02-13T15:41:08;20.23;;;16.17;;
1785;SDS011;890;48.158;11.540;2023-02-13T15:43:42;21.07;;;16.70;;
1785;SDS011;890;48.158;11.540;2023-02-13T15:48:56;29.20;;;16.73;;
1785;SDS011;890;48.158;11.540;2023-02-13T15:51:25;19.40;;;16.80;;
1785;SDS011;890;48.158;11.540;2023-02-13T15:54:02;22.87;;;17.60;;
1785;SDS011;890;48.158;11.540;2023-02-13T15:56:30;23.13;;;17.83;;
1785;SDS011;890;48.158;11.540;2023-02-13T15:58:57;25.47;;;17.50;;
1785;SDS011;890;48.158;11.540;2023-02-13T16:01:23;26.63;;;19.67;;
1785;SDS011;890;48.158;11.540;2023-02-13T16:03:51;23.13;;;17.33;;
1785;SDS011;890;48.158;11.540;2023-02-13T16:06:21;24.97;;;20.20;;
1785;SDS011;890;48.158;11.540;2023-02-13T16:08:51;21.93;;;16.97;;
1785;SDS011;890;48.158;11.540;2023-02-13T16:11:19;25.23;;;19.57;;
1785;SDS011;890;48.158;11.540;2023-02-13T16:16:25;24.67;;;18.87;;
1785;SDS011;890;48.158;11.540;2023-02-13T16:18:52;27.07;;;18.77;;
1785;SDS011;890;48.158;11.540;2023-02-13T16:21:21;27.20;;;19.73;;
1785;SDS011;890;48.158;11.540;2023-02-13T16:23:48;25.97;;;19.10;;
1785;SDS011;890;48.158;11.540;2023-02-13T16:26:20;22.90;;;18.13;;
1785;SDS011;890;48.158;11.540;2023-02-13T16:28:45;25.87;;;19.30;;
1785;SDS011;890;48.158;11.540;2023-02-13T16:31:14;26.60;;;19.80;;
1785;SDS011;890;48.158;11.540;2023-02-13T16:33:42;24.87;;;18.47;;
1785;SDS011;890;48.158;11.540;2023-02-13T16:44:02;26.60;;;18.77;;
1785;SDS011;890;48.158;11.540;2023-02-13T16:46:35;23.83;;;19.17;;
1785;SDS011;890;48.158;11.540;2023-02-13T16:51:36;25.43;;;19.30;;
1785;SDS011;890;48.158;11.540;2023-02-13T16:59:31;24.47;;;18.77;;
1785;SDS011;890;48.158;11.540;2023-02-13T17:10:00;24.90;;;20.20;;
1785;SDS011;890;48.158;11.540;2023-02-13T17:12:29;26.90;;;20.83;;
1785;SDS011;890;48.158;11.540;2023-02-13T17:14:59;31.30;;;23.00;;
1785;SDS011;890;48.158;11.540;2023-02-13T17:17:26;27.67;;;22.00;;
1785;SDS011;890;48.158;11.540;2023-02-13T17:19:54;29.00;;;22.40;;
1785;SDS011;890;48.158;11.540;2023-02-13T17:25:06;14.20;;;9.63;;
1785;SDS011;890;48.158;11.540;2023-02-13T17:27:47;24.77;;;20.27;;
1785;SDS011;890;48.158;11.540;2023-02-13T17:30:18;27.60;;;22.00;;
1785;SDS011;890;48.158;11.540;2023-02-13T17:32:46;29.77;;;23.30;;
1785;SDS011;890;48.158;11.540;2023-02-13T17:35:13;27.93;;;21.70;;
1785;SDS011;890;48.158;11.540;2023-02-13T17:37:40;34.17;;;24.50;;
1785;SDS011;890;48.158;11.540;2023-02-13T17:40:07;28.93;;;23.90;;
1785;SDS011;890;48.158;11.540;2023-02-13T17:42:39;33.63;;;23.33;;
1785;SDS011;890;48.158;11.540;2023-02-13T17:45:06;31.70;;;24.07;;
1785;SDS011;890;48.158;11.540;2023-02-13T17:47:34;31.10;;;23.60;;
1785;SDS011;890;48.158;11.540;2023-02-13T17:50:00;33.63;;;25.97;;
1785;SDS011;890;48.158;11.540;2023-02-13T17:52:26;31.70;;;23.77;;
1785;SDS011;890;48.158;11.540;2023-02-13T17:54:52;29.00;;;23.97;;
1785;SDS011;890;48.158;11.540;2023-02-13T17:57:18;33.70;;;24.37;;
1785;SDS011;890;48.158;11.540;2023-02-13T17:59:44;30.13;;;23.83;;
1785;SDS011;890;48.158;11.540;2023-02-13T18:02:14;33.33;;;24.07;;
1785;SDS011;890;48.158;11.540;2023-02-13T18:04:44;32.80;;;24.93;;
1785;SDS011;890;48.158;11.540;2023-02-13T18:07:11;34.80;;;25.10;;
1785;SDS011;890;48.158;11.540;2023-02-13T18:09:40;35.27;;;27.17;;
1785;SDS011;890;48.158;11.540;2023-02-13T18:12:07;30.83;;;24.90;;
1785;SDS011;890;48.158;11.540;2023-02-13T18:14:40;36.73;;;26.50;;
1785;SDS011;890;48.158;11.540;2023-02-13T18:17:06;35.00;;;27.07;;
1785;SDS011;890;48.158;11.540;2023-02-13T18:19:32;33.40;;;26.93;;
1785;SDS011;890;48.158;11.540;2023-02-13T18:21:58;37.40;;;26.33;;
1785;SDS011;890;48.158;11.540;2023-02-13T18:24:27;33.60;;;25.27;;
1785;SDS011;890;48.158;11.540;2023-02-13T18:26:57;32.77;;;25.80;;
1785;SDS011;890;48.158;11.540;2023-02-13T18:29:23;32.50;;;24.57;;
1785;SDS011;890;48.158;11.540;2023-02-13T18:31:49;40.67;;;28.33;;
1785;SDS011;890;48.158;11.540;2023-02-13T18:34:16;36.83;;;28.00;;